createdAt,value
2023-05-24T00:00:22.353Z,14.50
2023-05-24T00:02:49.958Z,14.50
2023-05-24T00:05:18.984Z,14.60
2023-05-24T00:07:46.289Z,14.50
2023-05-24T00:10:13.633Z,14.50
2023-05-24T00:12:40.983Z,14.50
2023-05-24T00:15:08.846Z,14.50
2023-05-24T00:17:41.170Z,14.50
2023-05-24T00:20:12.587Z,14.40
2023-05-24T00:22:41.199Z,14.50
2023-05-24T00:25:09.193Z,14.40
2023-05-24T00:27:37.396Z,14.40
2023-05-24T00:30:06.285Z,14.30
2023-05-24T00:32:33.820Z,14.30
2023-05-24T00:35:01.217Z,14.30
2023-05-24T00:37:29.585Z,14.30
2023-05-24T00:39:57.005Z,14.40
2023-05-24T00:42:24.371Z,14.40
2023-05-24T00:44:51.720Z,14.40
2023-05-24T00:47:19.079Z,14.40
2023-05-24T00:49:47.018Z,14.40
2023-05-24T00:52:14.587Z,14.40
2023-05-24T00:54:42.093Z,14.40
2023-05-24T00:57:09.718Z,14.30
2023-05-24T00:59:37.198Z,14.30
2023-05-24T01:02:04.793Z,14.30
2023-05-24T01:04:33.219Z,14.30
2023-05-24T01:07:17.102Z,14.30
2023-05-24T01:09:53.451Z,14.20
2023-05-24T01:12:27.789Z,14.20
2023-05-24T01:15:28.214Z,14.20
2023-05-24T01:18:08.006Z,14.20
2023-05-24T01:20:38.904Z,14.20
2023-05-24T01:23:21.208Z,14.20
2023-05-24T01:26:24.172Z,14.30
2023-05-24T01:28:52.306Z,14.20
2023-05-24T01:31:21.801Z,14.20
2023-05-24T01:33:49.037Z,14.20
2023-05-24T01:36:16.556Z,14.20
2023-05-24T01:38:44.167Z,14.10
2023-05-24T01:41:21.874Z,14.10
2023-05-24T01:44:14.477Z,14.10
2023-05-24T01:46:41.938Z,14.10
2023-05-24T01:49:23.390Z,14.10
2023-05-24T01:52:09.043Z,14.10
2023-05-24T01:54:40.837Z,14.00
2023-05-24T01:57:10.543Z,14.00
2023-05-24T01:59:42.079Z,13.90
2023-05-24T02:02:11.229Z,13.90
2023-05-24T02:04:38.584Z,13.90
2023-05-24T02:07:06.509Z,13.90
2023-05-24T02:09:33.823Z,13.90
2023-05-24T02:12:01.084Z,13.90
2023-05-24T02:14:28.375Z,13.90
2023-05-24T02:16:58.854Z,13.80
2023-05-24T02:19:26.518Z,13.80
2023-05-24T02:21:54.638Z,13.80
2023-05-24T02:24:22.022Z,13.80
2023-05-24T02:26:49.318Z,13.80
2023-05-24T02:29:16.638Z,13.90
2023-05-24T02:31:44.049Z,13.80
2023-05-24T02:34:11.355Z,13.80
2023-05-24T02:36:38.739Z,13.80
2023-05-24T02:39:06.324Z,13.80
2023-05-24T02:41:33.573Z,13.80
2023-05-24T02:44:00.849Z,13.70
2023-05-24T02:46:28.144Z,13.70
2023-05-24T02:48:55.400Z,13.70
2023-05-24T02:51:22.674Z,13.70
2023-05-24T02:53:50.267Z,13.70
2023-05-24T02:56:17.994Z,13.70
2023-05-24T02:58:46.161Z,13.70
2023-05-24T03:01:13.692Z,13.70
2023-05-24T03:03:41.212Z,13.70
2023-05-24T03:06:08.547Z,13.70
2023-05-24T03:08:37.505Z,13.70
2023-05-24T03:11:04.796Z,13.70
2023-05-24T03:13:32.045Z,13.80
2023-05-24T03:15:59.525Z,13.80
2023-05-24T03:18:26.873Z,13.70
2023-05-24T03:20:54.114Z,13.70
2023-05-24T03:23:21.371Z,13.70
2023-05-24T03:25:48.808Z,13.70
2023-05-24T03:28:16.247Z,13.70
2023-05-24T03:30:43.778Z,13.80
2023-05-24T03:33:11.266Z,13.80
2023-05-24T03:35:38.534Z,13.80
2023-05-24T03:38:05.867Z,13.80
2023-05-24T03:40:33.909Z,13.70
2023-05-24T03:43:03.012Z,13.70
2023-05-24T03:45:39.159Z,13.80
2023-05-24T03:48:07.517Z,13.80
2023-05-24T03:50:35.560Z,13.70
2023-05-24T03:53:02.946Z,13.80
2023-05-24T03:55:30.570Z,13.80
2023-05-24T03:57:57.889Z,13.80
2023-05-24T04:00:25.240Z,13.80
2023-05-24T04:02:53.247Z,13.90
2023-05-24T04:05:20.726Z,13.90
2023-05-24T04:07:48.387Z,13.90
2023-05-24T04:10:15.764Z,13.80
2023-05-24T04:12:45.600Z,13.80
2023-05-24T04:15:31.886Z,13.80
2023-05-24T04:18:00.682Z,13.80
2023-05-24T04:20:29.394Z,13.80
2023-05-24T04:22:56.773Z,13.90
2023-05-24T04:25:24.107Z,13.80
2023-05-24T04:27:51.346Z,13.90
2023-05-24T04:30:18.812Z,13.90
2023-05-24T04:32:46.146Z,13.90
2023-05-24T04:35:14.316Z,14.00
2023-05-24T04:37:41.592Z,14.00
2023-05-24T04:40:09.565Z,14.10
2023-05-24T04:42:36.932Z,14.10
2023-05-24T04:45:04.430Z,14.10
2023-05-24T04:47:31.791Z,14.10
2023-05-24T04:49:59.172Z,14.10
2023-05-24T04:52:26.438Z,14.10
2023-05-24T04:54:55.278Z,14.10
2023-05-24T04:57:22.579Z,14.10
2023-05-24T04:59:49.926Z,14.20
2023-05-24T05:02:17.610Z,14.20
2023-05-24T05:04:44.899Z,14.20
2023-05-24T05:07:12.181Z,14.20
2023-05-24T05:09:39.400Z,14.20
2023-05-24T05:12:07.340Z,14.30
2023-05-24T05:14:34.733Z,14.30
2023-05-24T05:17:02.031Z,14.40
2023-05-24T05:19:29.253Z,14.40
2023-05-24T05:21:56.534Z,14.40
2023-05-24T05:24:23.785Z,14.40
2023-05-24T05:26:51.083Z,14.40
2023-05-24T05:29:18.410Z,14.40
2023-05-24T05:31:46.998Z,14.40
2023-05-24T05:34:14.283Z,14.50
2023-05-24T05:36:42.647Z,14.40
2023-05-24T05:39:10.244Z,14.40
2023-05-24T05:41:39.687Z,14.40
2023-05-24T05:44:07.226Z,14.50
2023-05-24T05:46:34.610Z,14.50
2023-05-24T05:49:02.136Z,14.50
2023-05-24T05:51:29.469Z,14.60
2023-05-24T05:53:56.976Z,14.60
2023-05-24T05:56:24.352Z,14.70
2023-05-24T05:58:51.588Z,14.70
2023-05-24T06:01:18.843Z,14.70
2023-05-24T06:03:46.409Z,14.80
2023-05-24T06:06:13.775Z,14.90
2023-05-24T06:08:41.306Z,14.90
2023-05-24T06:11:08.594Z,15.00
2023-05-24T06:13:35.890Z,15.00
2023-05-24T06:16:03.251Z,15.00
2023-05-24T06:18:32.580Z,15.10
2023-05-24T06:20:59.865Z,15.10
2023-05-24T06:23:27.106Z,15.10
2023-05-24T06:25:54.758Z,15.20
2023-05-24T06:28:22.834Z,15.20
2023-05-24T06:30:50.098Z,15.20
2023-05-24T06:33:17.470Z,15.30
2023-05-24T06:35:44.703Z,15.30
2023-05-24T06:38:11.928Z,15.30
2023-05-24T06:40:39.237Z,15.40
2023-05-24T06:43:06.562Z,15.50
2023-05-24T06:45:33.825Z,15.50
2023-05-24T06:48:01.142Z,15.60
2023-05-24T06:50:28.598Z,15.60
2023-05-24T06:52:55.927Z,15.60
2023-05-24T06:55:23.297Z,15.70
2023-05-24T06:57:50.641Z,15.60
2023-05-24T07:00:18.822Z,15.80
2023-05-24T07:02:46.183Z,15.90
2023-05-24T07:05:13.491Z,15.90
2023-05-24T07:07:44.170Z,16.10
2023-05-24T07:10:12.384Z,16.10
2023-05-24T07:12:39.983Z,16.20
2023-05-24T07:15:10.042Z,16.30
2023-05-24T07:17:37.519Z,16.30
2023-05-24T07:20:10.633Z,16.40
2023-05-24T07:22:38.020Z,16.40
2023-05-24T07:25:05.868Z,16.40
2023-05-24T07:27:33.184Z,16.60
2023-05-24T07:30:00.552Z,16.40
2023-05-24T07:32:27.952Z,16.40
2023-05-24T07:34:55.347Z,16.20
2023-05-24T07:37:24.680Z,16.10
2023-05-24T07:39:52.876Z,16.00
2023-05-24T07:42:21.654Z,16.00
2023-05-24T07:44:48.938Z,16.10
2023-05-24T07:47:16.231Z,16.10
2023-05-24T07:49:43.473Z,16.10
2023-05-24T07:52:10.741Z,16.00
2023-05-24T07:54:38.044Z,16.00
2023-05-24T07:57:08.651Z,15.90
2023-05-24T07:59:36.566Z,15.90
2023-05-24T08:02:05.789Z,15.90
2023-05-24T08:04:35.917Z,16.00
2023-05-24T08:07:04.163Z,16.10
2023-05-24T08:09:35.816Z,16.00
2023-05-24T08:12:06.203Z,15.90
2023-05-24T08:14:33.671Z,15.90
2023-05-24T08:17:01.140Z,15.80
2023-05-24T08:19:28.868Z,15.80
2023-05-24T08:21:57.703Z,15.80
2023-05-24T08:24:25.037Z,15.80
2023-05-24T08:26:52.957Z,15.80
2023-05-24T08:29:20.212Z,15.80
2023-05-24T08:31:47.719Z,15.70
2023-05-24T08:34:15.658Z,15.80
2023-05-24T08:36:44.020Z,15.90
2023-05-24T08:39:11.259Z,16.00
2023-05-24T08:41:39.030Z,16.10
2023-05-24T08:44:07.630Z,16.10
2023-05-24T08:46:39.253Z,16.10
2023-05-24T08:49:09.137Z,16.00
2023-05-24T08:51:38.802Z,15.80
2023-05-24T08:54:07.674Z,15.70
2023-05-24T08:56:35.110Z,15.60
2023-05-24T08:59:02.379Z,15.60
2023-05-24T09:01:32.297Z,15.60
2023-05-24T09:04:02.526Z,15.50
2023-05-24T09:06:30.061Z,15.50
2023-05-24T09:08:59.723Z,15.40
2023-05-24T09:11:28.474Z,15.50
2023-05-24T09:13:57.266Z,15.30
2023-05-24T09:16:24.687Z,15.30
2023-05-24T09:18:51.928Z,15.30
2023-05-24T09:21:19.952Z,15.20
2023-05-24T09:23:48.606Z,15.20
2023-05-24T09:26:15.989Z,15.10
2023-05-24T09:28:44.332Z,15.10
2023-05-24T09:31:12.522Z,15.00
2023-05-24T09:33:40.277Z,15.10
2023-05-24T09:36:07.951Z,15.10
2023-05-24T09:38:36.806Z,15.00
2023-05-24T09:41:06.798Z,15.00
2023-05-24T09:43:46.279Z,15.00
2023-05-24T09:46:18.820Z,15.00
2023-05-24T09:48:59.659Z,14.90
2023-05-24T09:51:27.186Z,15.00
2023-05-24T09:53:57.960Z,14.90
2023-05-24T09:56:25.601Z,15.00
2023-05-24T09:58:54.986Z,15.00
2023-05-24T10:01:24.614Z,14.90
2023-05-24T10:03:57.676Z,14.90
2023-05-24T10:06:25.753Z,14.80
2023-05-24T10:08:54.492Z,14.80
2023-05-24T10:11:21.756Z,14.70
2023-05-24T10:13:49.866Z,14.70
2023-05-24T10:16:17.400Z,14.60
2023-05-24T10:18:44.851Z,14.60
2023-05-24T10:21:12.812Z,14.60
2023-05-24T10:23:42.120Z,14.60
2023-05-24T10:26:13.997Z,14.60
2023-05-24T10:28:48.895Z,14.60
2023-05-24T10:31:24.190Z,14.70
2023-05-24T10:33:52.089Z,14.60
2023-05-24T10:36:19.565Z,14.60
2023-05-24T10:38:47.177Z,14.60
2023-05-24T10:41:14.619Z,14.70
2023-05-24T10:44:00.961Z,14.70
2023-05-24T10:46:34.201Z,14.70
2023-05-24T10:49:02.758Z,14.80
2023-05-24T10:51:33.819Z,14.70
2023-05-24T10:54:20.206Z,14.80
2023-05-24T10:56:50.174Z,14.70
2023-05-24T10:59:24.361Z,14.70
2023-05-24T11:01:59.275Z,14.70
2023-05-24T11:04:30.672Z,14.60
2023-05-24T11:07:05.765Z,14.60
2023-05-24T11:09:33.735Z,14.60
2023-05-24T11:12:07.577Z,14.60
2023-05-24T11:14:42.508Z,14.70
2023-05-24T11:17:10.708Z,14.70
2023-05-24T11:19:47.220Z,14.60
2023-05-24T11:22:15.328Z,14.70
2023-05-24T11:24:43.578Z,14.80
2023-05-24T11:27:13.174Z,14.70
2023-05-24T11:29:45.524Z,14.70
2023-05-24T11:32:21.205Z,14.70
2023-05-24T11:34:49.778Z,14.70
2023-05-24T11:37:18.795Z,14.70
2023-05-24T11:39:54.322Z,14.70
2023-05-24T11:42:23.593Z,14.70
2023-05-24T11:44:51.741Z,14.80
2023-05-24T11:47:22.029Z,14.80
2023-05-24T11:50:08.095Z,14.70
2023-05-24T11:52:53.627Z,14.60
2023-05-24T11:55:41.412Z,14.50
2023-05-24T11:58:52.164Z,14.60
2023-05-24T12:01:27.522Z,14.60
2023-05-24T12:03:55.571Z,14.60
2023-05-24T12:06:23.404Z,14.60
2023-05-24T12:08:50.924Z,14.60
2023-05-24T12:11:18.318Z,14.60
2023-05-24T12:13:45.840Z,14.60
2023-05-24T12:16:14.536Z,14.70
2023-05-24T12:18:51.403Z,14.60
2023-05-24T12:21:31.811Z,14.80
2023-05-24T12:24:25.977Z,14.80
2023-05-24T12:26:57.639Z,14.80
2023-05-24T12:29:25.039Z,14.80
2023-05-24T12:31:53.520Z,14.70
2023-05-24T12:34:21.552Z,14.60
2023-05-24T12:36:48.983Z,14.60
2023-05-24T12:39:21.332Z,14.50
2023-05-24T12:41:55.994Z,14.60
2023-05-24T12:44:42.041Z,14.70
2023-05-24T12:47:09.935Z,14.70
2023-05-24T12:49:37.535Z,14.70
2023-05-24T12:52:05.249Z,14.70
2023-05-24T12:54:32.879Z,14.60
2023-05-24T12:57:01.289Z,14.60
2023-05-24T12:59:29.077Z,14.60
2023-05-24T13:01:56.701Z,14.60
2023-05-24T13:04:26.468Z,14.60
2023-05-24T13:06:54.064Z,14.50
2023-05-24T13:09:23.750Z,14.60
2023-05-24T13:11:52.704Z,14.60
2023-05-24T13:14:20.583Z,14.50
2023-05-24T13:16:49.002Z,14.50
2023-05-24T13:19:17.227Z,14.50
2023-05-24T13:21:45.250Z,14.50
2023-05-24T13:24:15.897Z,14.50
2023-05-24T13:26:43.822Z,14.50
2023-05-24T13:31:41.915Z,14.50
2023-05-24T13:34:11.210Z,14.50
2023-05-24T13:36:39.409Z,14.60
2023-05-24T13:41:40.818Z,14.50
2023-05-24T13:44:08.685Z,14.50
2023-05-24T13:46:36.894Z,14.40
2023-05-24T13:49:05.086Z,14.40
2023-05-24T13:51:33.146Z,14.40
2023-05-24T13:54:01.705Z,14.40
2023-05-24T13:56:32.958Z,14.40
2023-05-24T13:59:02.770Z,14.40
2023-05-24T14:01:31.341Z,14.50
2023-05-24T14:03:58.946Z,14.50
2023-05-24T14:06:26.285Z,14.60
2023-05-24T14:08:53.698Z,14.60
2023-05-24T14:11:22.477Z,14.70
2023-05-24T14:16:20.115Z,14.80
2023-05-24T14:18:49.310Z,14.80
2023-05-24T14:21:21.741Z,14.80
2023-05-24T14:23:50.386Z,14.80
2023-05-24T14:26:19.111Z,14.80
2023-05-24T14:28:46.743Z,14.70
2023-05-24T14:31:14.037Z,14.60
2023-05-24T14:33:41.377Z,14.60
2023-05-24T14:36:09.255Z,14.50
2023-05-24T14:38:36.648Z,14.50
2023-05-24T14:41:04.042Z,14.50
2023-05-24T14:43:31.377Z,14.60
2023-05-24T14:45:58.734Z,14.60
2023-05-24T14:48:26.106Z,14.70
2023-05-24T14:50:53.425Z,14.70
2023-05-24T14:53:20.692Z,14.70
2023-05-24T14:55:48.248Z,14.80
2023-05-24T14:58:15.685Z,14.80
2023-05-24T15:00:43.902Z,14.90
2023-05-24T15:03:13.107Z,14.90
2023-05-24T15:05:42.671Z,15.00
2023-05-24T15:08:13.952Z,15.00
2023-05-24T15:10:43.850Z,15.00
2023-05-24T15:13:11.487Z,15.00
2023-05-24T15:15:39.085Z,15.00
2023-05-24T15:18:07.132Z,14.90
2023-05-24T15:20:35.776Z,14.90
2023-05-24T15:23:04.018Z,14.90
2023-05-24T15:25:31.299Z,14.80
2023-05-24T15:27:58.670Z,14.90
2023-05-24T15:30:25.926Z,14.80
2023-05-24T15:32:53.195Z,14.70
2023-05-24T15:35:21.033Z,14.70
2023-05-24T15:37:48.402Z,14.70
2023-05-24T15:40:16.277Z,14.60
2023-05-24T15:42:43.840Z,14.60
2023-05-24T15:45:11.739Z,14.60
2023-05-24T15:47:40.497Z,14.60
2023-05-24T15:50:09.026Z,14.60
2023-05-24T15:52:36.659Z,14.50
2023-05-24T15:55:07.736Z,14.50
2023-05-24T15:57:35.306Z,14.50
2023-05-24T16:00:02.628Z,14.50
2023-05-24T16:02:30.852Z,14.50
2023-05-24T16:04:58.229Z,14.50
2023-05-24T16:07:25.546Z,14.50
2023-05-24T16:09:52.995Z,14.40
2023-05-24T16:12:20.629Z,14.20
2023-05-24T16:14:48.169Z,14.20
2023-05-24T16:17:15.753Z,14.20
2023-05-24T16:19:43.290Z,14.00
2023-05-24T16:22:10.673Z,14.00
2023-05-24T16:24:38.414Z,14.00
2023-05-24T16:27:06.960Z,13.90
2023-05-24T16:29:35.127Z,13.90
2023-05-24T16:32:04.246Z,13.80
2023-05-24T16:34:38.740Z,13.80
2023-05-24T16:37:13.291Z,13.70
2023-05-24T16:39:40.661Z,13.60
2023-05-24T16:42:08.529Z,13.60
2023-05-24T16:44:35.858Z,13.60
2023-05-24T16:47:04.323Z,13.70
2023-05-24T16:49:31.687Z,13.70
2023-05-24T16:51:59.083Z,13.70
2023-05-24T16:54:26.605Z,13.80
2023-05-24T16:56:55.073Z,13.70
2023-05-24T16:59:23.445Z,13.70
2023-05-24T17:01:51.682Z,13.70
2023-05-24T17:04:19.175Z,13.90
2023-05-24T17:06:46.500Z,13.90
2023-05-24T17:09:13.972Z,13.80
2023-05-24T17:11:41.309Z,13.80
2023-05-24T17:14:08.606Z,13.90
2023-05-24T17:16:36.244Z,14.00
2023-05-24T17:19:03.816Z,14.10
2023-05-24T17:21:31.556Z,14.10
2023-05-24T17:24:00.301Z,14.20
2023-05-24T17:26:27.898Z,14.20
2023-05-24T17:28:55.182Z,14.20
2023-05-24T17:31:22.583Z,14.20
2023-05-24T17:33:49.969Z,14.20
2023-05-24T17:36:17.198Z,14.20
2023-05-24T17:38:44.582Z,14.20
2023-05-24T17:41:11.868Z,14.20
2023-05-24T17:43:41.181Z,14.20
2023-05-24T17:46:09.703Z,14.00
2023-05-24T17:48:38.524Z,14.00
2023-05-24T17:51:07.604Z,13.90
2023-05-24T17:53:38.307Z,13.80
2023-05-24T17:56:06.434Z,13.80
2023-05-24T17:58:36.902Z,13.80
2023-05-24T18:01:07.044Z,13.80
2023-05-24T18:03:37.121Z,13.80
2023-05-24T18:06:07.902Z,13.70
2023-05-24T18:08:38.113Z,13.80
2023-05-24T18:11:10.518Z,13.80
2023-05-24T18:13:39.229Z,13.80
2023-05-24T18:16:07.373Z,13.80
2023-05-24T18:18:34.831Z,13.80
2023-05-24T18:21:02.224Z,13.70
2023-05-24T18:23:29.764Z,13.70
2023-05-24T18:26:00.455Z,13.60
2023-05-24T18:28:30.352Z,13.60
2023-05-24T18:30:57.695Z,13.60
2023-05-24T18:33:25.149Z,13.60
2023-05-24T18:35:52.688Z,13.60
2023-05-24T18:38:20.002Z,13.40
2023-05-24T18:40:47.384Z,13.40
2023-05-24T18:43:14.782Z,13.50
2023-05-24T18:45:42.409Z,13.50
2023-05-24T18:48:09.890Z,13.50
2023-05-24T18:50:37.199Z,13.50
2023-05-24T18:53:04.594Z,13.60
2023-05-24T18:55:31.892Z,13.50
2023-05-24T18:57:59.223Z,13.50
2023-05-24T19:00:26.908Z,13.50
2023-05-24T19:02:55.615Z,13.60
2023-05-24T19:05:23.084Z,13.50
2023-05-24T19:07:50.496Z,13.50
2023-05-24T19:10:17.995Z,13.50
2023-05-24T19:12:45.382Z,13.50
2023-05-24T19:15:12.686Z,13.50
2023-05-24T19:17:40.283Z,13.50
2023-05-24T19:20:08.167Z,13.50
2023-05-24T19:22:35.964Z,13.50
2023-05-24T19:25:03.865Z,13.40
2023-05-24T19:27:31.369Z,13.30
2023-05-24T19:30:01.370Z,13.30
2023-05-24T19:32:29.122Z,13.40
2023-05-24T19:34:59.829Z,13.40
2023-05-24T19:37:27.474Z,13.40
2023-05-24T19:39:54.801Z,13.40
2023-05-24T19:42:22.045Z,13.40
2023-05-24T19:44:49.239Z,13.40
2023-05-24T19:47:16.559Z,13.40
2023-05-24T19:49:43.809Z,13.50
2023-05-24T19:52:11.170Z,13.40
2023-05-24T19:54:38.588Z,13.40
2023-05-24T19:57:06.362Z,13.40
2023-05-24T19:59:34.437Z,13.40
2023-05-24T20:02:01.834Z,13.40
2023-05-24T20:04:29.216Z,13.40
2023-05-24T20:06:56.420Z,13.40
2023-05-24T20:09:23.789Z,13.40
2023-05-24T20:11:51.492Z,13.30
2023-05-24T20:14:18.741Z,13.30
2023-05-24T20:16:46.140Z,13.30
2023-05-24T20:19:13.590Z,13.30
2023-05-24T20:21:40.831Z,13.30
2023-05-24T20:24:08.104Z,13.40
2023-05-24T20:26:37.026Z,13.40
2023-05-24T20:29:04.852Z,13.40
2023-05-24T20:31:32.275Z,13.40
2023-05-24T20:33:59.747Z,13.40
2023-05-24T20:36:27.035Z,13.30
2023-05-24T20:38:54.313Z,13.30
2023-05-24T20:41:21.532Z,13.30
2023-05-24T20:43:51.019Z,13.30
2023-05-24T20:46:18.361Z,13.30
2023-05-24T20:48:46.434Z,13.30
2023-05-24T20:51:13.750Z,13.30
2023-05-24T20:53:41.013Z,13.30
2023-05-24T20:56:08.428Z,13.30
2023-05-24T20:58:35.778Z,13.30
2023-05-24T21:01:03.102Z,13.30
2023-05-24T21:03:30.598Z,13.30
2023-05-24T21:05:59.480Z,13.30
2023-05-24T21:08:26.775Z,13.30
2023-05-24T21:10:55.744Z,13.30
2023-05-24T21:13:24.322Z,13.30
2023-05-24T21:15:51.686Z,13.30
2023-05-24T21:18:19.125Z,13.30
2023-05-24T21:20:46.585Z,13.30
2023-05-24T21:23:14.007Z,13.30
2023-05-24T21:25:41.489Z,13.30
2023-05-24T21:28:10.308Z,13.30
2023-05-24T21:30:37.635Z,13.30
2023-05-24T21:33:04.967Z,13.30
2023-05-24T21:35:32.736Z,13.30
2023-05-24T21:38:00.178Z,13.30
2023-05-24T21:40:27.428Z,13.30
2023-05-24T21:42:54.649Z,13.30
2023-05-24T21:45:21.916Z,13.30
2023-05-24T21:47:49.134Z,13.30
2023-05-24T21:50:16.424Z,13.30
2023-05-24T21:52:43.688Z,13.30
2023-05-24T21:55:11.136Z,13.20
2023-05-24T21:57:38.392Z,13.20
2023-05-24T22:00:06.319Z,13.20
2023-05-24T22:02:33.649Z,13.20
2023-05-24T22:05:01.534Z,13.30
2023-05-24T22:07:28.922Z,13.30
2023-05-24T22:09:56.258Z,13.20
2023-05-24T22:12:23.579Z,13.30
2023-05-24T22:14:50.888Z,13.20
2023-05-24T22:17:19.294Z,13.20
2023-05-24T22:19:48.061Z,13.20
2023-05-24T22:22:19.699Z,13.10
2023-05-24T22:24:49.948Z,13.10
2023-05-24T22:27:17.199Z,13.10
2023-05-24T22:29:44.469Z,13.10
2023-05-24T22:32:11.905Z,13.20
2023-05-24T22:34:39.696Z,13.10
2023-05-24T22:37:07.709Z,13.20
2023-05-24T22:39:34.975Z,13.20
2023-05-24T22:42:02.298Z,13.20
2023-05-24T22:44:29.731Z,13.20
2023-05-24T22:46:56.980Z,13.10
2023-05-24T22:49:24.262Z,13.20
2023-05-24T22:51:53.467Z,13.20
2023-05-24T22:54:20.812Z,13.20
2023-05-24T22:56:48.263Z,13.10
2023-05-24T22:59:15.724Z,13.10
2023-05-24T23:01:44.801Z,13.20
2023-05-24T23:04:21.279Z,13.20
2023-05-24T23:06:52.879Z,13.10
2023-05-24T23:09:34.956Z,13.10
2023-05-24T23:12:07.639Z,13.10
2023-05-24T23:14:39.952Z,13.10
2023-05-24T23:17:13.448Z,13.10
2023-05-24T23:19:42.751Z,13.10
2023-05-24T23:22:18.353Z,13.10
2023-05-24T23:24:47.531Z,13.10
2023-05-24T23:27:15.098Z,13.10
2023-05-24T23:29:42.403Z,13.10
2023-05-24T23:32:10.607Z,13.10
2023-05-24T23:34:38.195Z,13.10
2023-05-24T23:37:06.051Z,13.10
2023-05-24T23:39:33.338Z,13.10
2023-05-24T23:42:02.274Z,13.10
2023-05-24T23:44:29.964Z,13.10
2023-05-24T23:46:57.407Z,13.10
2023-05-24T23:49:25.849Z,13.10
2023-05-24T23:51:53.170Z,13.10
2023-05-24T23:54:20.551Z,13.10
2023-05-24T23:56:48.567Z,13.10
2023-05-24T23:59:17.460Z,13.00
